1990 DETY (1990031S09070)


On this page: IBTrACS data - Map and Plots - Positions - Intensities - Original source data

Summary

Start Jan 30
End Feb 11
Basin SI
LMI 95 kt
Sources jtwc_sh
reunion
neumann
In WMO? Yes
Previous storm 1990 OFA (SP)
Previous in basin 1990 TINA (SI)
Concurrent storms 1990 NANCY (SP)
1990 OFA (SP)
1990 DETY (SI)
1990 CEZERA (SI)
Next in basin 1990 CEZERA (SI)
Next storm 1990 CEZERA (SI)

top of page IBTrACS Data: File Access

top of page HURSAT Data: File Access

Image of storm

top of page Plots:

Map of storm track will not appear if FTP is down
Time series of cyclone Maximum Sustained Wind will not appear if FTP is down
Time series of cyclone Minimum Central Pressure will not appear if FTP is down

top of page Track Data:Position

jtwc_sh reunion neumann
Date Lat Lon Lat Lon Lat Lon
1990-01-30 18:00:00 -9.0 70.0 -9.0 70.0
1990-01-31 00:00:00 -9.1 70.0 -9.1 70.0
1990-01-31 06:00:00 -9.3 69.9 -9.3 69.9
1990-01-31 12:00:00 -9.5 69.8 -9.5 69.8
1990-01-31 18:00:00 -9.7 69.6 -9.7 69.6
1990-02-01 00:00:00 -9.8 69.5 -9.8 69.5
1990-02-01 06:00:00 -9.9 69.5 -9.9 69.5
1990-02-01 12:00:00 -10.0 69.5 -10.0 69.5
1990-02-01 18:00:00 -10.1 69.5 -10.1 69.5
1990-02-02 00:00:00 -10.2 69.5 -10.2 69.5
1990-02-02 06:00:00 -10.9 69.8 -10.9 69.8
1990-02-02 12:00:00 -11.5 69.8 -11.2 70.0 -11.5 69.8
1990-02-02 18:00:00 -12.1 69.8 -12.0 69.2 -12.1 69.8
1990-02-03 00:00:00 -12.7 69.8 -12.8 69.7 -12.7 69.8
1990-02-03 06:00:00 -13.3 69.6 -13.7 70.0 -13.3 69.6
1990-02-03 12:00:00 -14.2 69.2 -14.7 69.4 -14.2 69.2
1990-02-03 18:00:00 -15.0 68.4 -15.1 68.9 -15.0 68.4
1990-02-04 00:00:00 -15.6 67.8 -15.8 68.1 -15.6 67.8
1990-02-04 06:00:00 -16.0 67.3 -16.1 67.2 -16.0 67.3
1990-02-04 12:00:00 -16.1 67.0 -16.2 67.0 -16.1 67.0
1990-02-04 18:00:00 -16.1 66.9 -16.3 66.7 -16.1 66.9
1990-02-05 00:00:00 -16.2 66.8 -16.4 66.6 -16.2 66.8
1990-02-05 06:00:00 -16.4 66.8 -16.7 66.4 -16.4 66.8
1990-02-05 12:00:00 -16.6 67.0 -17.0 66.7 -16.6 67.0
1990-02-05 18:00:00 -16.7 67.5 -17.3 67.1 -16.7 67.5
jtwc_sh reunion neumann
1990-02-06 00:00:00 -16.9 68.2 -17.2 68.0 -16.9 68.2
1990-02-06 06:00:00 -17.1 69.2 -17.2 68.8 -17.1 69.2
1990-02-06 12:00:00 -17.3 70.2 -17.7 69.9 -17.3 70.2
1990-02-06 18:00:00 -17.5 71.4 -18.0 71.1 -17.5 71.4
1990-02-07 00:00:00 -17.6 72.6 -18.1 72.9 -17.6 72.6
1990-02-07 06:00:00 -17.6 73.6 -17.8 74.2 -17.6 73.6
1990-02-07 12:00:00 -17.0 74.5 -17.2 76.1 -17.0 74.5
1990-02-07 18:00:00 -16.0 74.4 -16.6 77.8 -16.0 74.4
1990-02-08 00:00:00 -15.6 74.1 -15.8 77.3 -15.6 74.1
1990-02-08 06:00:00 -17.0 76.3
1990-02-08 12:00:00 -17.6 76.6
1990-02-08 18:00:00 -18.0 77.0
1990-02-09 00:00:00 -18.2 77.5
1990-02-09 06:00:00 -18.7 78.1
1990-02-09 12:00:00 -18.8 78.4
1990-02-09 18:00:00 -19.0 78.9
1990-02-10 00:00:00 -19.1 79.1
1990-02-10 06:00:00 -19.3 79.3
1990-02-10 12:00:00 -19.8 80.0
1990-02-10 18:00:00 -20.1 80.6
1990-02-11 00:00:00 -20.7 81.2
1990-02-11 06:00:00 -21.0 82.0

top of pageTrack Data:Intensity

jtwc_sh reunion neumann
Date Wind Pres Wind Pres Wind Pres
1990-01-30 18:00:00 20. 20.
1990-01-31 00:00:00 20. 20.
1990-01-31 06:00:00 20. 20.
1990-01-31 12:00:00 20. 20.
1990-01-31 18:00:00 20. 20.
1990-02-01 00:00:00 20. 20.
1990-02-01 06:00:00 20. 20.
1990-02-01 12:00:00 20. 20.
1990-02-01 18:00:00 20. 20.
1990-02-02 00:00:00 30. 30.
1990-02-02 06:00:00 30. 30.
1990-02-02 12:00:00 35. 24. 1000. 35.
1990-02-02 18:00:00 40. 28. 997. 40.
1990-02-03 00:00:00 50. 36. 991. 50.
1990-02-03 06:00:00 65. 44. 984. 65.
1990-02-03 12:00:00 75. 52. 976. 75.
1990-02-03 18:00:00 85. 62. 966. 85.
1990-02-04 00:00:00 85. 72. 954. 85.
1990-02-04 06:00:00 90. 72. 954. 90.
1990-02-04 12:00:00 95. 72. 954. 95.
1990-02-04 18:00:00 95. 72. 954. 95.
1990-02-05 00:00:00 90. 72. 954. 90.
1990-02-05 06:00:00 90. 62. 966. 90.
1990-02-05 12:00:00 85. 62. 966. 85.
1990-02-05 18:00:00 80. 52. 976. 80.
jtwc_sh reunion neumann
1990-02-06 00:00:00 80. 52. 976. 80.
1990-02-06 06:00:00 75. 44. 984. 75.
1990-02-06 12:00:00 70. 52. 976. 70.
1990-02-06 18:00:00 65. 52. 976. 65.
1990-02-07 00:00:00 60. 52. 976. 60.
1990-02-07 06:00:00 55. 52. 976. 55.
1990-02-07 12:00:00 50. 52. 976. 50.
1990-02-07 18:00:00 40. 44. 984. 40.
1990-02-08 00:00:00 30. 36. 991. 30.
1990-02-08 06:00:00 28. 997.
1990-02-08 12:00:00 28. 997.
1990-02-08 18:00:00 24. 1000.
1990-02-09 00:00:00 20.
1990-02-09 06:00:00 20.
1990-02-09 12:00:00 20.
1990-02-09 18:00:00 20.
1990-02-10 00:00:00 20.
1990-02-10 06:00:00 20.
1990-02-10 12:00:00
1990-02-10 18:00:00
1990-02-11 00:00:00
1990-02-11 06:00:00

top of page Links to source data

Source Source file Format
jtwc_sh bsh151990.txt ATCF
reunion WMO-Best-Tracks.txt:Line=14842:dety WMO (old format)
neumann tracks.sh:Storm=884:DETY:BSH151990:JTWC HURDAT